Time;durP1;ratioP1;P1;durP2;ratioP2;P2;SDS_P1;SDS_P2;PMS_P1;PMS_P2;Temp;Humidity;BMP_temperature;BMP_pressure;BME280_temperature;BME280_humidity;BME280_pressure;Samples;Min_cycle;Max_cycle;Signal;HPM_P1;HPM_P2
2023/03/02 00:02:03;;;;;;;0.80;0.80;;;4.30;99.90;;;;;;4950831;28;20487;-77
2023/03/02 00:04:43;;;;;;;0.70;0.70;;;4.20;99.90;;;;;;4953925;28;20941;-77
2023/03/02 00:07:12;;;;;;;1.58;0.90;;;4.20;99.90;;;;;;4959634;28;20058;-77
2023/03/02 00:09:39;;;;;;;1.15;0.82;;;4.20;99.90;;;;;;4941774;28;20098;-77
2023/03/02 00:12:06;;;;;;;1.40;1.20;;;4.10;99.90;;;;;;4939559;28;20866;-77
2023/03/02 00:14:33;;;;;;;0.65;0.57;;;4.10;99.90;;;;;;4936066;28;20785;-78
2023/03/02 00:17:01;;;;;;;1.63;0.85;;;4.00;99.90;;;;;;4959113;28;20055;-77
2023/03/02 00:19:28;;;;;;;1.35;0.77;;;4.00;99.90;;;;;;4974948;28;20117;-77
2023/03/02 00:21:55;;;;;;;0.98;0.85;;;4.00;99.90;;;;;;4943657;28;20090;-77
2023/03/02 00:24:22;;;;;;;1.58;1.23;;;3.90;99.90;;;;;;4966383;28;20475;-78
2023/03/02 00:26:49;;;;;;;1.25;1.02;;;3.90;99.90;;;;;;4942544;28;20050;-77
2023/03/02 00:29:15;;;;;;;1.05;0.93;;;3.80;99.90;;;;;;4943178;28;20057;-78
2023/03/02 00:31:43;;;;;;;2.03;1.10;;;3.80;99.90;;;;;;4965546;28;20142;-77
2023/03/02 00:34:10;;;;;;;1.80;1.20;;;3.80;99.90;;;;;;4979695;28;20058;-78
2023/03/02 00:36:37;;;;;;;1.55;1.30;;;3.70;99.90;;;;;;4941120;28;20043;-78
2023/03/02 00:39:03;;;;;;;2.45;1.20;;;3.70;99.90;;;;;;4958623;28;20796;-77
2023/03/02 00:41:30;;;;;;;1.95;1.27;;;3.70;99.90;;;;;;4960142;28;20425;-78
2023/03/02 00:43:57;;;;;;;1.73;1.40;;;3.60;99.90;;;;;;4955028;28;20126;-78
2023/03/02 00:46:24;;;;;;;2.28;1.30;;;3.60;99.90;;;;;;4942576;28;20042;-77
2023/03/02 00:48:51;;;;;;;3.17;1.60;;;3.60;99.90;;;;;;4942923;28;20050;-77
2023/03/02 00:51:18;;;;;;;2.25;1.58;;;3.70;99.90;;;;;;4944233;28;20147;-77
2023/03/02 00:53:45;;;;;;;2.67;1.73;;;3.70;99.90;;;;;;4950036;28;20061;-78
2023/03/02 00:56:12;;;;;;;1.98;1.60;;;3.70;99.90;;;;;;4955599;28;20047;-77
2023/03/02 00:58:39;;;;;;;1.70;1.30;;;3.70;99.90;;;;;;4956494;28;20466;-77
2023/03/02 01:01:08;;;;;;;1.98;1.48;;;3.70;99.90;;;;;;4943780;28;20078;-77
2023/03/02 01:03:35;;;;;;;2.95;1.50;;;3.70;99.90;;;;;;4966313;28;20137;-77
2023/03/02 01:06:04;;;;;;;2.72;1.60;;;3.80;99.90;;;;;;4942306;28;20054;-77
2023/03/02 01:08:31;;;;;;;2.50;1.58;;;3.80;99.90;;;;;;4958155;28;20043;-77
2023/03/02 01:11:00;;;;;;;1.85;1.50;;;3.70;99.90;;;;;;4958973;28;20077;-77
2023/03/02 01:13:27;;;;;;;2.33;1.70;;;3.70;99.90;;;;;;4934004;28;20404;-77
2023/03/02 01:16:01;;;;;;;2.35;1.65;;;3.70;99.90;;;;;;4972811;28;20051;-78
2023/03/02 01:18:28;;;;;;;2.55;1.70;;;3.70;99.90;;;;;;4961769;28;20142;-78
2023/03/02 01:21:03;;;;;;;1.98;1.60;;;3.80;99.90;;;;;;4946126;28;21004;-78
2023/03/02 01:23:29;;;;;;;2.30;1.83;;;3.80;99.90;;;;;;4969750;28;20549;-77
2023/03/02 01:25:56;;;;;;;3.72;2.30;;;3.80;99.90;;;;;;4981781;28;20383;-78
2023/03/02 01:28:23;;;;;;;3.50;2.20;;;3.80;99.90;;;;;;4962150;28;20055;-77
2023/03/02 01:30:50;;;;;;;3.08;1.65;;;3.90;99.90;;;;;;4963444;28;20380;-78
2023/03/02 01:33:18;;;;;;;2.85;2.00;;;3.90;99.90;;;;;;4952185;28;20532;-78
2023/03/02 01:35:45;;;;;;;3.42;2.35;;;3.90;99.90;;;;;;4984218;28;20078;-78
2023/03/02 01:38:12;;;;;;;2.58;2.25;;;3.90;99.90;;;;;;4962151;28;20047;-78
2023/03/02 01:40:39;;;;;;;3.10;2.28;;;3.90;99.90;;;;;;4960480;28;20084;-77
2023/03/02 01:43:13;;;;;;;3.13;2.00;;;3.90;99.90;;;;;;4966032;28;20076;-78
2023/03/02 01:45:53;;;;;;;3.00;2.15;;;4.00;99.90;;;;;;4981137;28;20120;-78
2023/03/02 01:48:43;;;;;;;4.25;2.50;;;4.00;99.90;;;;;;4963128;28;20057;-78
2023/03/02 01:51:13;;;;;;;4.28;3.03;;;4.00;99.90;;;;;;4963250;28;20069;-78
2023/03/02 01:53:45;;;;;;;3.75;2.97;;;4.00;99.90;;;;;;4964508;28;20054;-78
2023/03/02 01:56:16;;;;;;;3.95;3.17;;;4.00;99.90;;;;;;4962348;28;20533;-78
2023/03/02 01:58:43;;;;;;;3.70;2.78;;;4.00;99.90;;;;;;4944290;28;20082;-78
2023/03/02 02:01:14;;;;;;;3.92;2.72;;;4.00;99.90;;;;;;4961331;28;20100;-78
2023/03/02 02:03:46;;;;;;;3.50;2.63;;;3.90;99.90;;;;;;4971531;28;20166;-78
2023/03/02 02:06:25;;;;;;;3.20;2.78;;;3.90;99.90;;;;;;4963085;28;20093;-78
2023/03/02 02:08:53;;;;;;;3.63;2.83;;;3.90;99.90;;;;;;4944552;28;20113;-78
2023/03/02 02:11:20;;;;;;;3.17;2.78;;;3.90;99.90;;;;;;4944522;28;20140;-78
2023/03/02 02:13:46;;;;;;;3.38;2.63;;;3.90;99.90;;;;;;4960805;28;20141;-78
2023/03/02 02:16:13;;;;;;;2.67;2.05;;;3.80;99.90;;;;;;4947626;28;20112;-78
2023/03/02 02:18:40;;;;;;;2.90;2.20;;;3.90;99.90;;;;;;4944837;28;20058;-78
2023/03/02 02:21:07;;;;;;;3.30;2.03;;;3.80;99.90;;;;;;4976646;28;20046;-78
2023/03/02 02:23:36;;;;;;;3.03;2.55;;;3.80;99.90;;;;;;4946073;28;20176;-78
2023/03/02 02:26:30;;;;;;;3.60;2.78;;;3.80;99.90;;;;;;4959801;28;20579;-78
2023/03/02 02:29:32;;;;;;;3.22;2.50;;;3.80;99.90;;;;;;4948349;28;20062;-78
2023/03/02 02:32:20;;;;;;;2.65;2.10;;;3.80;99.90;;;;;;4618534;28;10000561;-78
2023/03/02 02:34:51;;;;;;;2.67;2.15;;;3.70;99.90;;;;;;4961143;28;20046;-77
2023/03/02 02:37:27;;;;;;;3.50;2.83;;;3.70;99.90;;;;;;4956767;28;20055;-77
2023/03/02 02:39:54;;;;;;;3.78;2.63;;;3.60;99.90;;;;;;4950830;28;20117;-77
2023/03/02 02:42:38;;;;;;;4.72;2.60;;;3.60;99.90;;;;;;4974641;28;20054;-77
2023/03/02 02:45:15;;;;;;;3.95;2.50;;;3.50;99.90;;;;;;4967556;28;20078;-77
2023/03/02 02:47:42;;;;;;;3.17;2.30;;;3.40;99.90;;;;;;4934664;28;20560;-77
2023/03/02 02:50:20;;;;;;;3.38;2.58;;;3.30;99.90;;;;;;4950524;28;20137;-77
2023/03/02 02:52:50;;;;;;;2.97;2.30;;;3.30;99.90;;;;;;4966705;28;20078;-77
2023/03/02 02:55:19;;;;;;;2.55;2.28;;;3.20;99.90;;;;;;4949220;28;20149;-77
2023/03/02 02:57:46;;;;;;;2.92;2.53;;;3.20;99.90;;;;;;4950708;28;20088;-77
2023/03/02 03:00:22;;;;;;;2.88;2.30;;;3.10;99.90;;;;;;4949977;28;20391;-77
2023/03/02 03:03:29;;;;;;;2.92;2.30;;;3.10;99.90;;;;;;4950503;28;20444;-77
2023/03/02 03:05:57;;;;;;;3.50;2.58;;;3.00;99.90;;;;;;4951388;28;20129;-77
2023/03/02 03:08:42;;;;;;;3.58;2.80;;;3.00;99.90;;;;;;4966173;28;20407;-77
2023/03/02 03:11:13;;;;;;;3.33;2.40;;;2.90;99.90;;;;;;4965716;28;20471;-77
2023/03/02 03:13:41;;;;;;;4.03;2.50;;;2.90;99.90;;;;;;4951208;28;20050;-76
2023/03/02 03:16:10;;;;;;;4.15;3.20;;;2.90;99.90;;;;;;4962527;28;20054;-77
2023/03/02 03:18:37;;;;;;;3.78;2.85;;;2.80;99.90;;;;;;4937663;28;20077;-77
2023/03/02 03:21:04;;;;;;;3.33;2.90;;;2.80;99.90;;;;;;4956506;28;20138;-77
2023/03/02 03:23:31;;;;;;;4.50;3.40;;;2.80;99.90;;;;;;4962613;28;20141;-77
2023/03/02 03:25:57;;;;;;;4.07;2.92;;;2.70;99.90;;;;;;4948533;28;20168;-77
2023/03/02 03:28:24;;;;;;;4.20;2.92;;;2.70;99.90;;;;;;4948860;28;20047;-77
2023/03/02 03:30:51;;;;;;;4.63;3.85;;;2.60;99.90;;;;;;4965770;28;20686;-77
2023/03/02 03:33:18;;;;;;;3.95;2.97;;;2.60;99.90;;;;;;4974991;28;20081;-77
2023/03/02 03:35:45;;;;;;;4.25;3.30;;;2.60;99.90;;;;;;4964914;28;20558;-77
2023/03/02 03:38:13;;;;;;;3.70;2.97;;;2.50;99.90;;;;;;4950085;28;20077;-77
2023/03/02 03:40:39;;;;;;;4.03;3.05;;;2.50;99.90;;;;;;4964391;28;20072;-77
2023/03/02 03:43:06;;;;;;;3.28;2.78;;;2.50;99.90;;;;;;4990193;28;20141;-77
2023/03/02 03:45:33;;;;;;;4.15;2.30;;;2.50;99.90;;;;;;4966010;28;20053;-77
2023/03/02 03:48:00;;;;;;;3.30;2.90;;;2.40;99.90;;;;;;4965595;28;20058;-77
2023/03/02 03:50:26;;;;;;;3.47;2.58;;;2.40;99.90;;;;;;4949905;28;20055;-77
2023/03/02 03:52:53;;;;;;;3.88;2.90;;;2.40;99.90;;;;;;4954447;28;20520;-77
2023/03/02 03:55:20;;;;;;;3.75;2.72;;;2.40;99.90;;;;;;4932861;28;20069;-77
2023/03/02 03:57:47;;;;;;;4.28;3.00;;;2.40;99.90;;;;;;4949600;28;20516;-76
2023/03/02 04:00:16;;;;;;;3.70;2.47;;;2.40;99.90;;;;;;4949521;28;20117;-77
2023/03/02 04:02:42;;;;;;;3.30;2.42;;;2.40;99.90;;;;;;4958869;28;20062;-77
2023/03/02 04:05:09;;;;;;;3.70;2.80;;;2.40;99.90;;;;;;4988247;28;20051;-77
2023/03/02 04:07:37;;;;;;;3.15;2.25;;;2.30;99.90;;;;;;4941532;29;20139;-77
2023/03/02 04:10:04;;;;;;;3.08;2.40;;;2.30;99.90;;;;;;4945363;29;20051;-77
2023/03/02 04:12:36;;;;;;;3.38;2.70;;;2.30;99.90;;;;;;4948361;28;20113;-77
2023/03/02 04:15:03;;;;;;;2.63;2.08;;;2.30;99.90;;;;;;4963762;28;20050;-77
2023/03/02 04:17:30;;;;;;;2.92;2.20;;;2.20;99.90;;;;;;4965546;28;20042;-77
2023/03/02 04:19:58;;;;;;;2.88;2.33;;;2.20;99.90;;;;;;4981586;28;20154;-77
2023/03/02 04:22:25;;;;;;;3.40;2.90;;;2.20;99.90;;;;;;4966675;28;20050;-77
2023/03/02 04:24:52;;;;;;;3.97;2.60;;;2.20;99.90;;;;;;4988178;28;20565;-77
2023/03/02 04:27:19;;;;;;;2.95;2.40;;;2.10;99.90;;;;;;4980779;28;20050;-77
2023/03/02 04:29:46;;;;;;;3.45;2.25;;;2.10;99.90;;;;;;4964553;28;20059;-77
2023/03/02 04:32:13;;;;;;;3.45;2.80;;;2.00;99.90;;;;;;4964018;28;20121;-77
2023/03/02 04:34:40;;;;;;;3.50;2.90;;;2.00;99.90;;;;;;4948178;28;20062;-77
2023/03/02 04:37:07;;;;;;;2.97;2.35;;;2.00;99.90;;;;;;4964643;28;20138;-77
2023/03/02 04:39:34;;;;;;;3.92;3.05;;;1.90;99.90;;;;;;4963711;28;20058;-76
2023/03/02 04:42:01;;;;;;;3.90;2.83;;;1.90;99.90;;;;;;4964740;28;20152;-77
2023/03/02 04:44:27;;;;;;;2.75;2.35;;;1.90;99.90;;;;;;4966270;28;20050;-77
2023/03/02 04:46:55;;;;;;;3.88;2.63;;;1.80;99.90;;;;;;4948321;28;20049;-77
2023/03/02 04:49:21;;;;;;;3.58;2.72;;;1.80;99.90;;;;;;4966931;28;20055;-77
2023/03/02 04:51:49;;;;;;;3.88;2.85;;;1.80;99.90;;;;;;4948671;28;20102;-77
2023/03/02 04:54:20;;;;;;;3.97;2.97;;;1.80;99.90;;;;;;4956232;28;20050;-77
2023/03/02 04:56:47;;;;;;;3.30;2.53;;;1.80;99.90;;;;;;4959943;28;20204;-77
2023/03/02 04:59:19;;;;;;;4.13;3.35;;;1.80;99.90;;;;;;4619489;28;10000334;-76
2023/03/02 05:01:45;;;;;;;3.90;2.90;;;1.80;99.90;;;;;;4966629;28;20046;-77
2023/03/02 05:04:12;;;;;;;4.38;2.90;;;1.80;99.90;;;;;;4955701;28;20138;-76
2023/03/02 05:06:39;;;;;;;4.25;3.40;;;1.80;99.90;;;;;;4965507;28;20079;-77
2023/03/02 05:09:06;;;;;;;4.55;3.17;;;1.70;99.90;;;;;;4966452;28;20069;-77
2023/03/02 05:11:33;;;;;;;3.95;2.95;;;1.70;99.90;;;;;;4962802;28;20158;-77
2023/03/02 05:14:03;;;;;;;3.40;2.47;;;1.70;99.90;;;;;;4954808;28;20050;-77
2023/03/02 05:16:31;;;;;;;3.22;2.40;;;1.60;99.90;;;;;;4965546;28;20054;-77
2023/03/02 05:18:59;;;;;;;3.10;2.50;;;1.60;99.90;;;;;;4966164;28;20078;-76
2023/03/02 05:21:26;;;;;;;2.80;2.28;;;1.60;99.90;;;;;;4967124;28;20158;-77
2023/03/02 05:23:52;;;;;;;3.35;2.35;;;1.50;99.90;;;;;;4977947;28;20095;-77
2023/03/02 05:26:19;;;;;;;3.80;2.50;;;1.50;99.90;;;;;;4989548;28;20061;-77
2023/03/02 05:28:46;;;;;;;3.13;2.42;;;1.50;99.90;;;;;;4962151;28;20182;-77
2023/03/02 05:31:43;;;;;;;3.65;2.65;;;1.40;99.90;;;;;;4965712;28;20057;-77
2023/03/02 05:34:11;;;;;;;3.55;2.90;;;1.40;99.90;;;;;;4980003;28;20102;-77
2023/03/02 05:36:38;;;;;;;3.35;2.42;;;1.40;99.90;;;;;;4955929;28;20050;-77
2023/03/02 05:39:05;;;;;;;4.57;3.45;;;1.30;99.90;;;;;;4966422;28;20050;-77
2023/03/02 05:41:32;;;;;;;4.15;2.97;;;1.20;99.90;;;;;;4949532;28;20166;-77
2023/03/02 05:43:59;;;;;;;3.60;2.78;;;1.30;99.90;;;;;;4953107;28;20070;-77
2023/03/02 05:46:25;;;;;;;3.50;2.45;;;1.20;99.90;;;;;;4964390;28;20082;-77
2023/03/02 05:48:52;;;;;;;3.00;2.20;;;1.20;99.90;;;;;;4949483;28;20078;-77
2023/03/02 05:51:19;;;;;;;3.75;2.80;;;1.10;99.90;;;;;;4916809;28;20073;-77
2023/03/02 05:53:46;;;;;;;3.20;2.45;;;1.10;99.90;;;;;;4951291;28;20058;-77
2023/03/02 05:56:13;;;;;;;3.92;2.88;;;1.10;99.90;;;;;;4926852;28;20050;-78
2023/03/02 05:58:41;;;;;;;3.05;2.70;;;1.00;99.90;;;;;;4960221;28;20311;-77
2023/03/02 06:01:09;;;;;;;3.42;2.53;;;0.90;99.90;;;;;;4962639;28;20128;-77
2023/03/02 06:03:40;;;;;;;3.63;2.65;;;0.80;99.90;;;;;;4950983;28;20164;-77
2023/03/02 06:06:12;;;;;;;4.20;3.10;;;0.80;99.90;;;;;;4973353;28;20545;-77
2023/03/02 06:08:41;;;;;;;3.85;2.63;;;0.90;99.90;;;;;;4948880;28;20047;-76
2023/03/02 06:11:08;;;;;;;3.47;2.58;;;0.90;99.90;;;;;;4957998;28;20138;-76
2023/03/02 06:13:35;;;;;;;3.45;2.75;;;0.90;99.90;;;;;;4972881;28;20120;-77
2023/03/02 06:16:03;;;;;;;4.22;3.10;;;1.00;99.90;;;;;;4939404;28;20121;-78
2023/03/02 06:18:30;;;;;;;3.90;2.85;;;1.00;99.90;;;;;;4934307;28;20425;-77
2023/03/02 06:20:57;;;;;;;3.47;2.67;;;1.00;99.90;;;;;;4924589;28;20146;-77
2023/03/02 06:23:24;;;;;;;4.30;3.00;;;1.00;99.90;;;;;;4940424;28;20525;-77
2023/03/02 06:25:51;;;;;;;4.05;3.20;;;1.00;99.90;;;;;;4949002;28;20077;-77
2023/03/02 06:28:19;;;;;;;3.60;2.83;;;1.00;99.90;;;;;;4923368;28;20058;-77
2023/03/02 06:30:51;;;;;;;3.97;3.20;;;1.00;99.90;;;;;;4940725;28;20535;-77
2023/03/02 06:33:20;;;;;;;3.83;2.83;;;1.00;99.90;;;;;;4970014;28;20059;-77
2023/03/02 06:35:47;;;;;;;5.72;3.60;;;1.00;99.90;;;;;;4967793;28;20302;-77
2023/03/02 06:38:16;;;;;;;3.88;2.90;;;1.00;99.90;;;;;;4938494;28;20097;-77
2023/03/02 06:40:43;;;;;;;5.03;3.67;;;1.00;99.90;;;;;;4951835;28;20059;-77
2023/03/02 06:43:10;;;;;;;3.92;2.90;;;0.90;99.90;;;;;;4969539;28;20133;-77
2023/03/02 06:45:37;;;;;;;4.72;3.35;;;1.00;99.90;;;;;;4944334;28;20314;-77
2023/03/02 06:48:04;;;;;;;4.35;3.20;;;0.80;99.90;;;;;;4939932;28;20534;-77
2023/03/02 06:50:31;;;;;;;4.47;3.50;;;0.80;99.90;;;;;;4951747;28;20178;-77
2023/03/02 06:52:58;;;;;;;4.13;3.10;;;0.80;99.90;;;;;;4952658;28;20246;-77
2023/03/02 06:55:25;;;;;;;5.07;3.47;;;0.90;99.90;;;;;;4954424;28;20050;-77
2023/03/02 06:57:52;;;;;;;4.18;3.17;;;0.80;99.90;;;;;;4939811;28;20053;-76
2023/03/02 07:00:24;;;;;;;4.40;3.38;;;0.70;99.90;;;;;;4938016;28;20051;-77
2023/03/02 07:02:52;;;;;;;3.20;2.60;;;0.80;99.90;;;;;;4954588;28;20093;-77
2023/03/02 07:05:19;;;;;;;3.25;2.65;;;0.80;99.90;;;;;;4951475;28;20313;-80
2023/03/02 07:07:46;;;;;;;3.97;3.10;;;0.80;99.90;;;;;;4935529;28;20126;-77
2023/03/02 07:10:13;;;;;;;3.85;2.72;;;0.80;99.90;;;;;;4952713;28;20129;-77
2023/03/02 07:12:40;;;;;;;3.40;2.55;;;0.70;99.90;;;;;;4935236;28;20091;-77
2023/03/02 07:15:10;;;;;;;4.32;3.30;;;0.80;99.90;;;;;;4955759;28;20557;-77
2023/03/02 07:17:37;;;;;;;4.43;3.35;;;0.80;99.90;;;;;;4928049;28;20054;-78
2023/03/02 07:20:05;;;;;;;3.63;2.78;;;0.80;99.90;;;;;;4952880;28;20726;-78
2023/03/02 07:22:32;;;;;;;4.78;3.70;;;0.80;99.90;;;;;;4991137;28;20738;-78
2023/03/02 07:24:58;;;;;;;4.78;3.42;;;0.90;99.90;;;;;;4976903;28;20078;-78
2023/03/02 07:27:25;;;;;;;5.55;4.20;;;1.00;99.90;;;;;;4980329;28;20069;-78
2023/03/02 07:29:52;;;;;;;4.97;3.88;;;1.10;99.90;;;;;;4979001;28;20055;-78
2023/03/02 07:32:19;;;;;;;5.40;4.00;;;1.10;99.90;;;;;;4995555;28;20297;-77
2023/03/02 07:34:46;;;;;;;6.05;4.78;;;1.30;99.90;;;;;;4995972;28;20050;-77
2023/03/02 07:37:12;;;;;;;7.20;5.43;;;1.30;99.90;;;;;;4979704;28;20046;-77
2023/03/02 07:39:39;;;;;;;6.53;5.07;;;1.50;99.90;;;;;;4994159;28;20058;-78
2023/03/02 07:42:07;;;;;;;7.00;5.53;;;1.50;99.90;;;;;;4995266;28;20310;-78
2023/03/02 07:44:34;;;;;;;10.13;8.07;;;1.70;99.90;;;;;;4978081;28;20505;-77
2023/03/02 07:47:01;;;;;;;10.98;7.78;;;1.80;99.90;;;;;;4979189;28;20080;-77
2023/03/02 07:49:28;;;;;;;9.55;7.60;;;1.90;99.90;;;;;;4979315;28;20058;-77
2023/03/02 07:51:54;;;;;;;9.07;7.32;;;2.00;99.90;;;;;;4979251;28;20058;-78
2023/03/02 07:54:21;;;;;;;8.50;6.97;;;2.10;99.90;;;;;;4979301;28;20043;-78
2023/03/02 07:56:48;;;;;;;11.82;8.82;;;2.20;99.90;;;;;;4977554;28;20058;-77
2023/03/02 07:59:15;;;;;;;12.57;9.30;;;2.30;99.90;;;;;;4978902;28;20313;-78
2023/03/02 08:01:42;;;;;;;11.38;8.52;;;2.40;99.90;;;;;;4979991;28;20068;-78
2023/03/02 08:04:09;;;;;;;10.18;8.05;;;2.50;99.90;;;;;;4995040;28;20141;-78
2023/03/02 08:06:35;;;;;;;11.38;8.60;;;2.60;99.90;;;;;;4995102;28;20065;-78
2023/03/02 08:09:03;;;;;;;9.82;7.75;;;2.70;99.90;;;;;;4978122;28;20092;-78
2023/03/02 08:11:29;;;;;;;9.13;7.22;;;2.80;99.90;;;;;;4977847;28;20054;-77
2023/03/02 08:14:00;;;;;;;10.82;8.98;;;2.90;99.90;;;;;;4982096;28;20046;-78
2023/03/02 08:16:28;;;;;;;11.43;9.38;;;3.00;99.90;;;;;;4975064;28;20141;-78
2023/03/02 08:18:55;;;;;;;13.65;10.65;;;3.10;99.90;;;;;;4982074;28;20380;-77
2023/03/02 08:21:25;;;;;;;10.88;8.23;;;3.30;99.90;;;;;;4981642;28;20053;-77
2023/03/02 08:23:52;;;;;;;11.00;9.20;;;3.40;99.90;;;;;;4987359;28;20058;-89
2023/03/02 08:26:20;;;;;;;13.82;10.70;;;3.40;99.90;;;;;;4968232;28;20051;-92
2023/03/02 08:28:46;;;;;;;10.65;8.93;;;3.50;99.90;;;;;;4970301;28;20265;-90
2023/03/02 08:31:13;;;;;;;11.23;9.00;;;3.50;99.90;;;;;;4969389;28;20086;-88
2023/03/02 08:33:40;;;;;;;10.85;8.02;;;3.60;99.90;;;;;;4969014;28;20066;-91
2023/03/02 08:36:13;;;;;;;10.50;7.90;;;3.70;99.90;;;;;;4952405;28;20054;-87
2023/03/02 08:38:41;;;;;;;9.40;7.65;;;3.80;99.90;;;;;;4977728;28;20122;-89
2023/03/02 08:41:13;;;;;;;10.18;8.25;;;3.90;99.90;;;;;;4944968;28;20141;-89
2023/03/02 08:43:41;;;;;;;7.55;6.75;;;3.90;99.90;;;;;;4970783;28;20397;-89
2023/03/02 08:46:09;;;;;;;8.23;6.25;;;4.10;99.90;;;;;;4960702;28;20085;-88
2023/03/02 08:48:36;;;;;;;9.15;6.85;;;4.20;99.90;;;;;;4976517;28;20360;-89
2023/03/02 08:51:08;;;;;;;10.45;7.85;;;4.20;99.90;;;;;;4955920;28;20050;-87
2023/03/02 08:53:38;;;;;;;10.93;9.00;;;4.20;99.90;;;;;;4991848;28;20137;-88
2023/03/02 08:56:13;;;;;;;10.73;8.60;;;4.20;99.90;;;;;;4986278;28;20058;-88
2023/03/02 08:58:40;;;;;;;11.93;9.07;;;4.30;99.90;;;;;;5001086;28;20232;-86
2023/03/02 09:01:19;;;;;;;10.82;8.32;;;4.30;99.90;;;;;;4986186;28;20050;-90
2023/03/02 09:03:46;;;;;;;10.23;8.02;;;4.40;99.90;;;;;;4970965;28;20043;-87
2023/03/02 09:06:13;;;;;;;10.18;8.55;;;4.40;99.90;;;;;;4951912;28;20054;-87
2023/03/02 09:08:40;;;;;;;10.00;8.70;;;4.50;99.90;;;;;;4969043;28;20051;-88
2023/03/02 09:11:07;;;;;;;9.18;8.05;;;4.60;99.90;;;;;;4970723;28;20120;-84
2023/03/02 09:13:34;;;;;;;9.55;7.75;;;4.70;99.90;;;;;;4953815;28;20057;-86
2023/03/02 09:16:00;;;;;;;9.90;8.52;;;4.80;99.90;;;;;;4966494;28;20101;-92
2023/03/02 09:18:28;;;;;;;12.25;10.15;;;4.90;99.90;;;;;;4987139;28;20130;-92
2023/03/02 09:20:55;;;;;;;12.25;9.25;;;4.90;99.90;;;;;;4984763;28;20085;-89
2023/03/02 09:23:23;;;;;;;10.60;9.32;;;5.00;99.90;;;;;;4964684;28;20580;-89
2023/03/02 09:25:51;;;;;;;10.25;9.10;;;5.00;99.90;;;;;;4945885;28;20141;-88
2023/03/02 09:28:20;;;;;;;10.73;8.93;;;5.10;99.90;;;;;;4959759;28;20145;-88
2023/03/02 09:30:51;;;;;;;12.13;10.30;;;5.20;99.90;;;;;;4950336;28;20066;-90
2023/03/02 09:33:19;;;;;;;13.27;10.32;;;5.20;99.90;;;;;;4939837;28;20089;-87
2023/03/02 09:35:46;;;;;;;12.45;9.90;;;5.30;99.90;;;;;;4970200;28;20511;-88
2023/03/02 09:38:17;;;;;;;11.85;10.35;;;5.40;99.90;;;;;;4952287;28;20237;-90
2023/03/02 09:40:47;;;;;;;15.40;12.30;;;5.50;99.90;;;;;;4966589;28;20066;-89
2023/03/02 09:43:28;;;;;;;13.50;12.05;;;5.40;99.90;;;;;;4980275;28;20054;-89
2023/03/02 09:46:26;;;;;;;14.05;10.93;;;5.40;99.90;;;;;;4968316;28;20102;-91
2023/03/02 09:49:17;;;;;;;11.38;9.55;;;5.50;99.90;;;;;;4966295;28;21176;-89
2023/03/02 09:51:47;;;;;;;9.85;8.50;;;5.60;99.90;;;;;;4965042;28;20394;-90
2023/03/02 09:54:16;;;;;;;10.68;8.25;;;5.70;99.90;;;;;;4966007;28;20369;-88
2023/03/02 09:56:47;;;;;;;11.15;9.75;;;5.90;99.90;;;;;;4950031;28;20073;-88
2023/03/02 09:59:22;;;;;;;10.93;9.75;;;5.90;99.90;;;;;;4946965;28;20348;-86
2023/03/02 10:02:28;;;;;;;10.75;9.65;;;6.10;99.90;;;;;;4974044;28;20102;-86
2023/03/02 10:04:56;;;;;;;12.70;10.68;;;6.20;99.90;;;;;;4970557;28;20126;-87
2023/03/02 10:07:48;;;;;;;14.73;13.13;;;6.30;99.90;;;;;;4959927;28;20046;-87
2023/03/02 10:10:34;;;;;;;11.63;9.88;;;6.20;99.90;;;;;;4970053;28;20178;-86
2023/03/02 10:13:05;;;;;;;11.80;10.13;;;6.20;99.90;;;;;;4964029;28;20046;-87
2023/03/02 10:15:57;;;;;;;11.68;10.45;;;6.20;99.90;;;;;;4953328;28;20275;-89
2023/03/02 10:18:37;;;;;;;14.00;10.63;;;6.30;99.90;;;;;;4944163;29;20077;-87
2023/03/02 10:21:24;;;;;;;11.73;10.35;;;6.40;99.90;;;;;;4943796;28;20066;-88
2023/03/02 10:24:21;;;;;;;11.68;10.20;;;6.50;99.90;;;;;;4955847;28;20059;-86
2023/03/02 10:26:52;;;;;;;10.93;9.38;;;6.70;99.90;;;;;;4950007;28;20051;-87
2023/03/02 10:29:31;;;;;;;10.20;8.80;;;6.90;99.90;;;;;;4953714;28;20054;-86
2023/03/02 10:32:13;;;;;;;8.88;7.97;;;7.10;99.90;;;;;;4981698;28;20090;-87
2023/03/02 10:34:41;;;;;;;9.60;8.30;;;7.20;99.90;;;;;;4994442;28;20140;-87
2023/03/02 10:37:21;;;;;;;13.02;11.48;;;7.30;99.90;;;;;;5001411;28;20055;-87
2023/03/02 10:39:48;;;;;;;10.90;9.73;;;7.30;99.90;;;;;;4979773;28;20054;-87
2023/03/02 10:42:36;;;;;;;11.18;9.98;;;7.40;99.90;;;;;;4981965;28;20133;-87
2023/03/02 10:45:25;;;;;;;11.85;10.65;;;7.40;99.90;;;;;;4964985;28;20046;-84
2023/03/02 10:48:03;;;;;;;11.10;9.90;;;7.30;99.90;;;;;;4982310;28;20058;-86
2023/03/02 10:50:30;;;;;;;11.85;9.93;;;7.30;99.90;;;;;;4984011;28;20100;-87
2023/03/02 10:52:56;;;;;;;13.45;10.57;;;7.40;99.90;;;;;;4974402;28;20059;-89
2023/03/02 10:55:28;;;;;;;11.48;10.27;;;7.40;99.90;;;;;;4961832;28;20493;-87
2023/03/02 10:58:01;;;;;;;10.98;9.50;;;7.40;99.90;;;;;;4964646;28;20047;-86
2023/03/02 11:00:29;;;;;;;10.15;9.15;;;7.40;99.90;;;;;;4970018;28;20082;-86
2023/03/02 11:03:16;;;;;;;11.43;9.35;;;7.40;99.90;;;;;;4990175;28;20181;-86
2023/03/02 11:05:44;;;;;;;9.55;8.65;;;7.60;99.90;;;;;;4952840;28;20059;-88
2023/03/02 11:08:17;;;;;;;9.50;8.50;;;7.80;99.90;;;;;;4953134;28;20058;-88
2023/03/02 11:10:59;;;;;;;9.75;8.75;;;7.80;99.90;;;;;;4971725;28;20430;-89
2023/03/02 11:13:30;;;;;;;10.20;9.20;;;7.80;99.90;;;;;;4991333;28;20054;-87
2023/03/02 11:15:59;;;;;;;9.98;8.68;;;7.90;99.90;;;;;;4986949;28;20521;-83
2023/03/02 11:18:39;;;;;;;9.57;8.57;;;7.90;99.90;;;;;;4984624;28;20050;-84
2023/03/02 11:21:34;;;;;;;12.05;10.13;;;8.00;99.90;;;;;;5004345;28;20129;-87
2023/03/02 11:24:07;;;;;;;9.48;8.48;;;7.80;99.90;;;;;;4964399;28;20130;-85
2023/03/02 11:26:43;;;;;;;9.52;8.27;;;7.70;99.90;;;;;;4960165;28;20055;-86
2023/03/02 11:29:28;;;;;;;11.38;9.10;;;7.70;99.90;;;;;;4956664;28;20394;-86
2023/03/02 11:32:07;;;;;;;9.52;8.05;;;7.70;99.90;;;;;;4960359;28;20113;-87
2023/03/02 11:34:53;;;;;;;9.55;8.60;;;7.90;99.90;;;;;;4965013;28;20137;-87
2023/03/02 11:37:22;;;;;;;9.40;8.38;;;7.90;99.90;;;;;;4958068;28;20499;-88
2023/03/02 11:39:48;;;;;;;8.05;7.25;;;8.00;99.90;;;;;;4978660;28;20497;-89
2023/03/02 11:42:36;;;;;;;9.73;7.38;;;8.10;99.90;;;;;;4964680;28;20154;-91
2023/03/02 11:45:13;;;;;;;10.38;8.93;;;8.40;99.90;;;;;;4975278;28;20055;-89
2023/03/02 11:48:02;;;;;;;8.55;7.65;;;8.80;99.90;;;;;;4970785;28;20461;-88
2023/03/02 11:50:31;;;;;;;9.45;8.07;;;8.80;99.90;;;;;;4970424;28;20146;-89
2023/03/02 11:53:00;;;;;;;8.82;7.75;;;9.10;99.90;;;;;;4960030;28;20051;-89
2023/03/02 11:55:27;;;;;;;9.35;8.40;;;9.40;99.90;;;;;;4969201;28;20047;-88
2023/03/02 11:58:00;;;;;;;7.88;7.10;;;9.30;99.90;;;;;;4990419;28;20527;-92
2023/03/02 12:00:27;;;;;;;8.90;8.00;;;9.40;99.90;;;;;;4956041;28;20215;-90
2023/03/02 12:03:18;;;;;;;9.10;7.47;;;9.10;99.90;;;;;;4968625;28;20494;-91
2023/03/02 12:05:52;;;;;;;9.68;8.70;;;8.90;99.90;;;;;;5001184;28;20394;-88
2023/03/02 12:08:21;;;;;;;9.43;8.38;;;8.70;99.90;;;;;;4986020;28;20141;-91
2023/03/02 12:11:08;;;;;;;9.80;8.80;;;8.50;99.90;;;;;;4961644;28;20050;-85
2023/03/02 12:13:35;;;;;;;10.27;8.85;;;8.60;99.90;;;;;;4965065;28;20372;-90
2023/03/02 12:16:24;;;;;;;9.43;8.38;;;8.80;99.90;;;;;;4957552;28;20047;-93
2023/03/02 12:18:53;;;;;;;8.55;7.68;;;9.10;99.90;;;;;;4956807;28;20074;-93
2023/03/02 12:21:21;;;;;;;7.82;7.05;;;9.50;99.90;;;;;;4972155;28;20146;-93
2023/03/02 12:23:48;;;;;;;7.68;6.80;;;9.90;99.90;;;;;;4967974;28;20054;-93
2023/03/02 12:26:18;;;;;;;7.65;6.93;;;10.30;99.90;;;;;;4961142;28;20061;-90
2023/03/02 12:29:05;;;;;;;9.20;8.30;;;10.40;99.90;;;;;;4965424;28;20126;-91
2023/03/02 12:31:52;;;;;;;8.90;8.00;;;10.40;99.90;;;;;;4977079;28;20047;-92
2023/03/02 12:34:37;;;;;;;8.15;7.35;;;10.30;99.90;;;;;;4963278;28;20117;-93
2023/03/02 12:37:10;;;;;;;8.27;7.47;;;10.10;99.90;;;;;;4960971;28;20055;-91
2023/03/02 12:40:00;;;;;;;8.70;7.90;;;10.10;99.90;;;;;;4993888;28;20124;-89
2023/03/02 12:42:50;;;;;;;7.57;6.88;;;10.10;99.90;;;;;;4960287;28;20121;-92
2023/03/02 12:45:35;;;;;;;7.90;7.10;;;10.30;99.90;;;;;;4963909;28;20051;-91
2023/03/02 12:48:26;;;;;;;6.22;5.63;;;10.70;99.90;;;;;;4935897;29;20223;-93
2023/03/02 12:50:57;;;;;;;6.25;5.72;;;11.10;99.90;;;;;;4961522;28;20051;-93
2023/03/02 12:53:25;;;;;;;7.80;6.03;;;11.40;99.90;;;;;;4965991;28;20059;-92
2023/03/02 12:55:52;;;;;;;6.43;5.82;;;11.40;99.90;;;;;;4980760;28;20061;-92
2023/03/02 12:58:23;;;;;;;6.60;5.88;;;11.60;99.90;;;;;;4951023;29;20158;-94
2023/03/02 13:00:54;;;;;;;6.85;6.25;;;11.70;99.90;;;;;;4971690;28;20054;-92
2023/03/02 13:03:22;;;;;;;6.70;6.10;;;12.00;99.90;;;;;;4974103;28;20544;-92
2023/03/02 13:05:49;;;;;;;5.80;5.20;;;12.20;99.90;;;;;;4990083;28;20056;-93
2023/03/02 13:08:27;;;;;;;6.63;6.03;;;12.70;99.90;;;;;;4989030;28;20108;-93
2023/03/02 13:10:59;;;;;;;5.82;5.30;;;12.80;99.60;;;;;;4990572;28;20052;-92
2023/03/02 13:13:48;;;;;;;6.78;5.30;;;13.00;99.20;;;;;;4962352;28;20692;-93